createdAt,value
2017-09-07T00:07:45.000Z,63.6
2017-09-07T00:24:32.000Z,63.6
2017-09-07T00:41:18.000Z,63.6
2017-09-07T00:58:04.000Z,63.6
2017-09-07T01:14:52.000Z,63.6
2017-09-07T01:31:38.000Z,62.8
2017-09-07T01:48:25.000Z,62.8
2017-09-07T02:05:11.000Z,63.6
2017-09-07T02:21:57.000Z,63.6
2017-09-07T02:38:45.000Z,63.6
2017-09-07T02:55:31.000Z,63.6
2017-09-07T03:12:17.000Z,63.6
2017-09-07T03:29:04.000Z,63.6
2017-09-07T03:45:50.000Z,63.2
2017-09-07T04:02:37.000Z,63.2
2017-09-07T04:19:24.000Z,63.2
2017-09-07T04:36:10.000Z,63.2
2017-09-07T04:52:57.000Z,63.2
2017-09-07T05:09:43.000Z,63.2
2017-09-07T05:26:29.000Z,63.2
2017-09-07T05:43:15.000Z,63.2
2017-09-07T06:00:02.000Z,63.2
2017-09-07T06:16:49.000Z,63.2
2017-09-07T06:33:34.000Z,63.2
2017-09-07T06:50:21.000Z,63.2
2017-09-07T07:07:07.000Z,63.6
2017-09-07T07:23:54.000Z,63.6
2017-09-07T07:40:41.000Z,63.6
2017-09-07T07:57:28.000Z,63.6
2017-09-07T08:14:15.000Z,63.2
2017-09-07T08:31:01.000Z,63.2
2017-09-07T08:47:49.000Z,63.2
2017-09-07T09:04:36.000Z,62.8
2017-09-07T09:21:23.000Z,62.8
2017-09-07T09:38:10.000Z,62.4
2017-09-07T09:54:57.000Z,62
2017-09-07T10:11:44.000Z,60.8
2017-09-07T10:28:31.000Z,60.8
2017-09-07T10:45:18.000Z,60.4
2017-09-07T11:02:04.000Z,60.4
2017-09-07T11:18:52.000Z,60.4
2017-09-07T11:35:38.000Z,60
2017-09-07T11:52:26.000Z,59.2
2017-09-07T12:09:14.000Z,58
2017-09-07T12:26:01.000Z,57.6
2017-09-07T12:42:48.000Z,58
2017-09-07T12:59:36.000Z,57.6
2017-09-07T13:16:23.000Z,57.6
2017-09-07T13:33:10.000Z,56.8
2017-09-07T13:49:59.000Z,56.4
2017-09-07T14:06:46.000Z,56
2017-09-07T14:23:34.000Z,56
2017-09-07T14:40:21.000Z,56.4
2017-09-07T14:57:09.000Z,56
2017-09-07T15:13:57.000Z,56
2017-09-07T15:30:44.000Z,55.2
2017-09-07T15:47:31.000Z,54.8
2017-09-07T16:04:19.000Z,55.2
2017-09-07T16:21:07.000Z,55.6
2017-09-07T16:37:54.000Z,55.6
2017-09-07T16:54:41.000Z,56
2017-09-07T17:11:29.000Z,56
2017-09-07T17:28:16.000Z,56.4
2017-09-07T17:45:03.000Z,56.4
2017-09-07T18:01:50.000Z,56.4
2017-09-07T18:18:38.000Z,57.2
2017-09-07T18:35:25.000Z,57.6
2017-09-07T18:52:13.000Z,58
2017-09-07T19:09:00.000Z,58
2017-09-07T19:25:48.000Z,58
2017-09-07T19:42:36.000Z,58.4
2017-09-07T19:59:23.000Z,59.2
2017-09-07T20:16:09.000Z,59.2
2017-09-07T20:32:57.000Z,59.6
2017-09-07T20:49:43.000Z,60
2017-09-07T21:06:30.000Z,60
2017-09-07T21:23:17.000Z,60
2017-09-07T21:40:04.000Z,60
2017-09-07T21:56:50.000Z,60
2017-09-07T22:13:36.000Z,60
2017-09-07T22:30:24.000Z,59.6
2017-09-07T22:47:10.000Z,60.4
2017-09-07T23:03:56.000Z,60.4
2017-09-07T23:20:42.000Z,60.4
2017-09-07T23:37:29.000Z,60
2017-09-07T23:54:15.000Z,60
